Time;durP1;ratioP1;P1;durP2;ratioP2;P2;SDS_P1;SDS_P2;PMS_P1;PMS_P2;Temp;Humidity;BMP_temperature;BMP_pressure;BME280_temperature;BME280_humidity;BME280_pressure;Samples;Min_cycle;Max_cycle;Signal;HPM_P1;HPM_P2
2021/08/21 00:01:43;;;;;;;;;;;17.40;99.90;;;;;;5094527;28;20012;-77
2021/08/21 00:04:12;;;;;;;5.53;2.80;;;17.50;99.90;;;;;;5094433;28;20275;-78
2021/08/21 00:06:38;;;;;;;7.82;3.33;;;17.40;99.90;;;;;;5094561;28;20024;-78
2021/08/21 00:09:04;;;;;;;;;;;17.10;99.90;;;;;;5076452;28;20019;-77
2021/08/21 00:11:30;;;;;;;6.22;2.85;;;17.10;99.90;;;;;;5094167;28;20317;-78
2021/08/21 00:13:55;;;;;;;;;;;16.90;99.90;;;;;;5095033;28;20024;-78
2021/08/21 00:16:21;;;;;;;7.00;2.78;;;16.80;99.90;;;;;;5094513;28;20386;-78
2021/08/21 00:18:47;;;;;;;;;;;17.00;99.90;;;;;;5094443;28;20017;-78
2021/08/21 00:21:13;;;;;;;6.32;2.30;;;17.00;99.90;;;;;;5075848;28;20280;-78
2021/08/21 00:23:41;;;;;;;4.85;2.42;;;16.90;99.90;;;;;;5093807;28;20016;-78
2021/08/21 00:26:07;;;;;;;6.63;2.15;;;16.80;99.90;;;;;;5075660;28;20016;-78
2021/08/21 00:28:32;;;;;;;;;;;17.00;99.90;;;;;;5094232;28;20027;-78
2021/08/21 00:30:58;;;;;;;5.10;2.20;;;17.10;99.90;;;;;;5093938;28;19908;-78
2021/08/21 00:33:24;;;;;;;;;;;16.90;99.90;;;;;;5093746;28;20028;-77
2021/08/21 00:35:49;;;;;;;4.13;1.90;;;16.60;99.90;;;;;;5093755;28;19904;-77
2021/08/21 00:38:15;;;;;;;;;;;16.60;99.90;;;;;;5094292;28;20028;-78
2021/08/21 00:40:41;;;;;;;3.80;2.05;;;16.80;99.90;;;;;;5093831;28;19904;-78
2021/08/21 00:43:06;;;;;;;;;;;17.00;99.90;;;;;;5075862;28;20078;-78
2021/08/21 00:45:33;;;;;;;5.93;2.20;;;17.10;99.90;;;;;;5093635;28;19905;-78
2021/08/21 00:48:02;;;;;;;5.85;2.30;;;17.00;99.90;;;;;;5075357;28;20020;-78
2021/08/21 00:50:28;;;;;;;6.00;2.20;;;16.70;99.90;;;;;;5093496;28;20024;-78
2021/08/21 00:52:54;;;;;;;;;;;16.50;99.90;;;;;;5093916;28;20076;-80
2021/08/21 00:55:20;;;;;;;5.43;2.30;;;16.70;99.90;;;;;;5093512;28;20292;-80
2021/08/21 00:57:45;;;;;;;;;;;16.90;99.90;;;;;;5093892;28;20051;-81
2021/08/21 01:00:12;;;;;;;5.10;2.10;;;16.60;99.90;;;;;;5093413;28;19965;-80
2021/08/21 01:02:39;;;;;;;8.23;2.35;;;16.60;99.90;;;;;;5093111;28;20568;-80
2021/08/21 01:05:07;;;;;;;6.93;2.25;;;16.70;99.90;;;;;;5093365;28;20480;-80
2021/08/21 01:07:35;;;;;;;6.57;2.35;;;16.70;99.90;;;;;;5075262;28;20509;-80
2021/08/21 01:10:07;;;;;;;7.22;2.40;;;16.80;99.90;;;;;;5093358;28;20020;-81
2021/08/21 01:12:34;;;;;;;5.18;2.53;;;16.90;99.90;;;;;;5093366;28;20491;-80
2021/08/21 01:14:59;;;;;;;6.57;2.47;;;16.60;99.90;;;;;;5093279;28;20488;-81
2021/08/21 01:17:26;;;;;;;;;;;16.40;99.90;;;;;;5093648;28;20036;-80
2021/08/21 01:19:52;;;;;;;4.75;2.30;;;16.30;99.90;;;;;;5093273;28;19951;-80
2021/08/21 01:22:19;;;;;;;;;;;16.30;99.90;;;;;;5075475;28;20476;-80
2021/08/21 01:24:46;;;;;;;4.97;2.20;;;16.40;99.90;;;;;;5093576;28;19904;-81
2021/08/21 01:27:23;;;;;;;7.22;2.38;;;16.60;99.90;;;;;;5093132;28;20024;-80
2021/08/21 01:29:50;;;;;;;6.65;2.35;;;16.60;99.90;;;;;;5093373;28;20070;-81
2021/08/21 01:32:16;;;;;;;8.63;2.70;;;16.60;99.90;;;;;;5093216;28;20032;-80
2021/08/21 01:34:42;;;;;;;5.78;2.90;;;16.40;99.90;;;;;;5074942;28;20021;-81
2021/08/21 01:37:08;;;;;;;;;;;16.20;99.90;;;;;;5093476;28;20119;-80
2021/08/21 01:39:33;;;;;;;9.68;3.15;;;16.10;99.90;;;;;;5093223;28;19996;-80
2021/08/21 01:41:59;;;;;;;;;;;16.10;99.90;;;;;;5093428;28;20031;-80
2021/08/21 01:44:25;;;;;;;6.25;2.78;;;16.00;99.90;;;;;;5093021;28;19919;-80
2021/08/21 01:46:51;;;;;;;;;;;16.00;99.90;;;;;;5078976;28;20126;-80
2021/08/21 01:49:18;;;;;;;4.28;2.00;;;16.40;99.90;;;;;;5097062;28;19904;-80
2021/08/21 01:51:46;;;;;;;6.57;2.15;;;16.50;99.90;;;;;;5096835;28;20016;-79
2021/08/21 01:54:17;;;;;;;4.82;2.20;;;16.20;99.90;;;;;;5096806;28;20031;-80
2021/08/21 01:56:57;;;;;;;6.90;2.30;;;16.10;99.90;;;;;;5097259;28;20103;-80
2021/08/21 01:59:26;;;;;;;3.78;1.80;;;16.20;99.90;;;;;;5096787;28;20474;-80
2021/08/21 02:01:53;;;;;;;6.25;2.00;;;16.30;99.90;;;;;;5096469;28;20050;-81
2021/08/21 02:04:20;;;;;;;5.32;1.95;;;16.40;99.90;;;;;;5096684;28;20081;-81
2021/08/21 02:06:46;;;;;;;4.07;1.63;;;16.40;99.90;;;;;;5096522;28;20024;-80
2021/08/21 02:09:14;;;;;;;5.47;1.80;;;16.50;99.90;;;;;;5096497;28;20024;-81
2021/08/21 02:11:39;;;;;;;7.75;1.88;;;16.60;99.90;;;;;;5096632;28;20012;-81
2021/08/21 02:14:05;;;;;;;;;;;16.60;99.90;;;;;;5096824;28;20528;-80
2021/08/21 02:16:31;;;;;;;4.95;2.15;;;16.60;99.90;;;;;;5096352;28;19904;-80
2021/08/21 02:18:58;;;;;;;7.30;2.40;;;16.30;99.90;;;;;;5096313;28;20062;-80
2021/08/21 02:21:24;;;;;;;6.93;1.98;;;16.00;99.90;;;;;;5096271;28;20031;-80
2021/08/21 02:23:52;;;;;;;4.85;2.00;;;16.10;99.90;;;;;;5096085;28;20407;-81
2021/08/21 02:26:18;;;;;;;13.10;2.50;;;16.40;99.90;;;;;;5096152;28;20038;-81
2021/08/21 02:28:43;;;;;;;;;;;16.30;99.90;;;;;;5078414;28;20031;-80
2021/08/21 02:31:09;;;;;;;7.47;2.30;;;16.30;99.90;;;;;;5096163;28;20330;-80
2021/08/21 02:33:35;;;;;;;6.80;2.38;;;16.10;99.90;;;;;;5096174;28;20415;-80
2021/08/21 02:36:01;;;;;;;;;;;16.30;99.90;;;;;;5078269;28;20030;-80
2021/08/21 02:38:26;;;;;;;6.55;2.60;;;16.50;99.90;;;;;;5096207;28;19912;-81
2021/08/21 02:40:52;;;;;;;;;;;16.30;99.90;;;;;;5096323;28;20101;-80
2021/08/21 02:43:20;;;;;;;8.52;2.90;;;15.90;99.90;;;;;;5095782;28;20261;-80
2021/08/21 02:45:46;;;;;;;8.55;2.97;;;15.80;99.90;;;;;;5096002;28;20016;-81
2021/08/21 02:48:12;;;;;;;8.45;2.90;;;15.80;99.90;;;;;;5095873;28;20060;-80
2021/08/21 02:50:37;;;;;;;;;;;16.00;99.90;;;;;;5096333;28;20048;-80
2021/08/21 02:53:03;;;;;;;6.63;2.78;;;16.40;99.90;;;;;;5096012;28;19933;-80
2021/08/21 02:55:29;;;;;;;;;;;16.40;99.90;;;;;;5095806;28;20028;-81
2021/08/21 02:57:54;;;;;;;5.78;2.20;;;16.40;99.90;;;;;;5095614;28;19957;-80
2021/08/21 03:00:20;;;;;;;;;;;16.40;99.90;;;;;;5095985;28;20377;-81
2021/08/21 03:02:46;;;;;;;6.90;2.20;;;16.40;99.90;;;;;;5095568;28;19916;-79
2021/08/21 03:05:12;;;;;;;5.15;2.20;;;16.30;99.90;;;;;;5095507;28;20232;-80
2021/08/21 03:07:37;;;;;;;9.35;2.70;;;16.20;99.90;;;;;;5077287;28;20479;-80
2021/08/21 03:10:04;;;;;;;;;;;16.20;99.90;;;;;;5095756;28;20419;-79
2021/08/21 03:12:31;;;;;;;7.28;2.85;;;15.90;99.90;;;;;;5095269;28;19904;-81
2021/08/21 03:14:57;;;;;;;10.27;2.53;;;15.40;99.90;;;;;;5095424;28;20026;-80
2021/08/21 03:17:23;;;;;;;8.55;2.67;;;15.30;99.90;;;;;;5095371;28;20099;-80
2021/08/21 03:19:49;;;;;;;;;;;15.70;99.90;;;;;;5077435;28;20070;-80
2021/08/21 03:22:14;;;;;;;7.90;3.20;;;15.90;99.90;;;;;;5095139;28;20426;-81
2021/08/21 03:24:40;;;;;;;;;;;15.80;99.90;;;;;;5095458;28;20016;-79
2021/08/21 03:27:06;;;;;;;9.23;3.80;;;15.60;99.90;;;;;;5095032;28;19904;-80
2021/08/21 03:29:31;;;;;;;;;;;15.40;99.90;;;;;;5095433;28;20028;-80
2021/08/21 03:31:57;;;;;;;9.25;3.78;;;15.30;99.90;;;;;;5095015;28;19904;-80
2021/08/21 03:34:24;;;;;;;;;;;15.20;99.90;;;;;;5095487;28;20074;-80
2021/08/21 03:36:54;;;;;;;11.70;4.10;;;15.20;99.90;;;;;;5094832;28;20434;-81
2021/08/21 03:39:19;;;;;;;10.50;3.83;;;15.20;99.90;;;;;;5094838;28;20024;-80
2021/08/21 03:41:45;;;;;;;;;;;15.20;99.90;;;;;;5095134;28;20036;-81
2021/08/21 03:44:11;;;;;;;8.27;3.33;;;15.60;99.90;;;;;;5094608;28;20000;-81
2021/08/21 03:46:36;;;;;;;;;;;15.90;99.90;;;;;;5095453;28;20016;-80
2021/08/21 03:49:02;;;;;;;11.20;3.50;;;15.90;99.90;;;;;;5076481;28;19908;-81
2021/08/21 03:51:28;;;;;;;;;;;16.10;99.90;;;;;;5095038;28;20016;-80
2021/08/21 03:53:54;;;;;;;8.63;3.05;;;16.10;99.90;;;;;;5076378;28;19904;-80
2021/08/21 03:56:20;;;;;;;;;;;16.20;99.90;;;;;;5094887;28;20067;-80
2021/08/21 03:58:45;;;;;;;12.75;3.42;;;16.20;99.90;;;;;;5094772;28;19908;-80
2021/08/21 04:01:11;;;;;;;;;;;16.00;99.90;;;;;;5094797;28;20099;-80
2021/08/21 04:03:37;;;;;;;7.75;3.13;;;15.90;99.90;;;;;;5094074;28;19969;-81
2021/08/21 04:06:03;;;;;;;12.65;3.10;;;15.80;99.90;;;;;;5094289;28;20028;-80
2021/08/21 04:08:28;;;;;;;;;;;15.80;99.90;;;;;;5093928;28;20024;-81
2021/08/21 04:10:54;;;;;;;8.60;3.05;;;15.80;99.90;;;;;;5094202;28;19939;-80
2021/08/21 04:13:20;;;;;;;;;;;15.70;99.90;;;;;;5094683;28;20054;-80
2021/08/21 04:15:45;;;;;;;10.27;3.30;;;15.70;99.90;;;;;;5094111;28;19908;-80
2021/08/21 04:18:11;;;;;;;8.63;2.97;;;15.50;99.90;;;;;;5094077;28;20069;-80
2021/08/21 04:20:37;;;;;;;;;;;15.20;99.90;;;;;;5094834;28;20400;-81
2021/08/21 04:23:03;;;;;;;7.80;2.75;;;15.20;99.90;;;;;;5093934;28;19915;-80
2021/08/21 04:25:28;;;;;;;10.48;3.10;;;15.70;99.90;;;;;;5093906;28;20027;-79
2021/08/21 04:27:54;;;;;;;7.13;2.95;;;15.90;99.90;;;;;;5093725;28;20055;-80
2021/08/21 04:30:20;;;;;;;;;;;16.00;99.90;;;;;;5094292;28;20016;-81
2021/08/21 04:32:45;;;;;;;9.65;3.40;;;16.10;99.90;;;;;;5075643;28;19915;-80
2021/08/21 04:35:11;;;;;;;;;;;16.00;99.90;;;;;;5094293;28;20055;-80
2021/08/21 04:37:37;;;;;;;14.13;3.83;;;15.70;99.90;;;;;;5093765;28;19908;-80
2021/08/21 04:40:04;;;;;;;;;;;15.50;99.90;;;;;;5094162;28;20047;-80
2021/08/21 04:42:30;;;;;;;8.63;4.10;;;15.30;99.90;;;;;;5093721;28;20395;-80
2021/08/21 04:44:59;;;;;;;;;;;15.40;99.90;;;;;;5094076;28;20032;-81
2021/08/21 04:47:27;;;;;;;11.05;4.30;;;15.60;99.90;;;;;;5093673;28;19908;-80
2021/08/21 04:49:57;;;;;;;11.23;4.10;;;15.70;99.90;;;;;;5093564;28;20379;-80
2021/08/21 04:52:27;;;;;;;9.93;3.70;;;15.80;99.90;;;;;;5093537;28;20498;-81
2021/08/21 04:54:53;;;;;;;12.65;3.75;;;16.20;99.90;;;;;;5093651;28;20491;-80
2021/08/21 04:57:19;;;;;;;;;;;16.30;99.90;;;;;;5075744;28;20020;-80
2021/08/21 04:59:44;;;;;;;9.05;3.92;;;16.30;99.90;;;;;;5093835;28;19953;-80
2021/08/21 05:02:10;;;;;;;9.38;3.70;;;16.20;99.90;;;;;;5093185;28;20037;-80
2021/08/21 05:04:36;;;;;;;;;;;15.90;99.90;;;;;;5093899;28;20059;-80
2021/08/21 05:07:02;;;;;;;18.13;5.30;;;15.80;99.90;;;;;;5093407;28;19904;-81
2021/08/21 05:09:27;;;;;;;10.15;5.07;;;15.80;99.90;;;;;;5093319;28;20020;-80
2021/08/21 05:11:53;;;;;;;;;;;15.70;99.90;;;;;;5093812;28;20506;-80
2021/08/21 05:14:19;;;;;;;10.02;4.57;;;15.70;99.90;;;;;;5093316;28;19908;-80
2021/08/21 05:16:46;;;;;;;9.10;4.93;;;15.90;99.90;;;;;;5093285;28;20038;-80
2021/08/21 05:19:37;;;;;;;7.93;4.00;;;15.90;99.90;;;;;;5076314;28;20077;-80
2021/08/21 05:22:22;;;;;;;9.88;4.03;;;16.10;99.90;;;;;;5097684;28;20502;-80
2021/08/21 05:24:49;;;;;;;9.52;4.07;;;16.30;99.90;;;;;;5097482;28;20484;-80
2021/08/21 05:27:16;;;;;;;12.23;4.32;;;16.40;99.90;;;;;;5097351;28;20425;-81
2021/08/21 05:29:42;;;;;;;11.82;5.15;;;16.40;99.90;;;;;;5097321;28;20028;-81
2021/08/21 05:32:08;;;;;;;12.13;4.43;;;16.40;99.90;;;;;;5097222;28;20052;-80
2021/08/21 05:34:34;;;;;;;;;;;16.50;99.90;;;;;;5097709;28;20417;-80
2021/08/21 05:36:59;;;;;;;9.27;4.95;;;16.50;99.90;;;;;;5097122;28;19911;-80
2021/08/21 05:39:25;;;;;;;;;;;16.50;99.90;;;;;;5097505;28;20369;-80
2021/08/21 05:41:51;;;;;;;9.15;4.75;;;16.50;99.90;;;;;;5078850;28;20291;-80
2021/08/21 05:44:16;;;;;;;;;;;16.70;99.90;;;;;;5097359;28;20070;-80
2021/08/21 05:46:42;;;;;;;10.90;5.47;;;17.00;99.90;;;;;;5097027;28;20381;-80
2021/08/21 05:49:08;;;;;;;;;;;17.00;99.90;;;;;;5097334;28;20476;-80
2021/08/21 05:51:34;;;;;;;10.85;4.80;;;16.90;99.90;;;;;;5097262;28;19954;-80
2021/08/21 05:53:59;;;;;;;;;;;16.80;99.90;;;;;;5097273;28;20027;-80
2021/08/21 05:56:25;;;;;;;10.52;4.80;;;16.90;99.90;;;;;;5096789;28;20328;-80
2021/08/21 05:58:51;;;;;;;;;;;16.60;99.90;;;;;;5097117;28;20032;-80
2021/08/21 06:01:17;;;;;;;8.43;4.30;;;16.70;99.90;;;;;;5096703;28;20037;-80
2021/08/21 06:03:42;;;;;;;11.32;5.38;;;17.10;99.90;;;;;;5096150;28;20122;-81
2021/08/21 06:06:12;;;;;;;;;;;16.90;99.90;;;;;;5097444;28;20051;-80
2021/08/21 06:08:39;;;;;;;10.43;5.35;;;16.90;99.90;;;;;;5096615;28;19904;-80
2021/08/21 06:11:05;;;;;;;12.95;6.72;;;16.40;99.90;;;;;;5096650;28;20099;-80
2021/08/21 06:13:31;;;;;;;;;;;16.20;99.90;;;;;;5096878;28;20116;-80
2021/08/21 06:15:57;;;;;;;10.43;5.90;;;16.30;99.90;;;;;;5096895;28;19904;-80
2021/08/21 06:18:22;;;;;;;;;;;16.20;99.90;;;;;;5097029;28;20028;-79
2021/08/21 06:20:48;;;;;;;10.95;5.47;;;16.40;99.90;;;;;;5096521;28;20334;-80
2021/08/21 06:23:14;;;;;;;;;;;16.50;99.90;;;;;;5096679;28;20024;-80
2021/08/21 06:25:39;;;;;;;11.48;5.53;;;16.60;99.90;;;;;;5096381;28;19908;-80
2021/08/21 06:28:05;;;;;;;;;;;16.60;99.90;;;;;;5078405;28;20069;-81
2021/08/21 06:30:31;;;;;;;8.98;5.38;;;16.70;99.90;;;;;;5095411;28;19949;-80
2021/08/21 06:32:56;;;;;;;;;;;16.80;99.90;;;;;;5096737;28;20392;-80
2021/08/21 06:35:22;;;;;;;11.63;5.60;;;16.70;99.90;;;;;;5096188;28;19934;-80
2021/08/21 06:37:48;;;;;;;;;;;16.80;99.90;;;;;;5096422;28;20393;-80
2021/08/21 06:40:14;;;;;;;10.77;5.85;;;16.60;99.90;;;;;;5096073;28;19904;-79
2021/08/21 06:42:40;;;;;;;8.40;4.88;;;16.60;99.90;;;;;;5095851;28;20024;-80
2021/08/21 06:45:06;;;;;;;;;;;16.60;99.90;;;;;;5078169;28;20032;-80
2021/08/21 06:47:31;;;;;;;13.02;6.72;;;16.80;99.90;;;;;;5095779;28;19969;-81
2021/08/21 06:49:57;;;;;;;;;;;16.50;99.90;;;;;;5096236;28;20407;-80
2021/08/21 06:52:23;;;;;;;9.25;5.55;;;16.40;99.90;;;;;;5095717;28;19904;-80
2021/08/21 06:54:49;;;;;;;10.20;6.32;;;16.60;99.90;;;;;;5095629;28;20016;-80
2021/08/21 06:57:15;;;;;;;;;;;16.50;99.90;;;;;;5096080;28;20028;-80
2021/08/21 06:59:40;;;;;;;15.13;6.57;;;16.40;99.90;;;;;;5095628;28;20379;-80
2021/08/21 07:02:06;;;;;;;;;;;16.30;99.90;;;;;;5095816;28;20055;-80
2021/08/21 07:04:32;;;;;;;12.48;6.93;;;16.30;99.90;;;;;;5095738;28;19908;-80
2021/08/21 07:06:58;;;;;;;12.80;7.45;;;16.10;99.90;;;;;;5095484;28;20031;-80
2021/08/21 07:09:23;;;;;;;;;;;16.10;99.90;;;;;;5095895;28;20078;-80
2021/08/21 07:11:49;;;;;;;12.43;6.40;;;16.10;99.90;;;;;;5095455;28;20292;-80
2021/08/21 07:14:15;;;;;;;;;;;16.20;99.90;;;;;;5095766;28;20020;-80
2021/08/21 07:16:40;;;;;;;11.60;5.95;;;16.40;99.90;;;;;;5095199;28;19904;-80
2021/08/21 07:19:06;;;;;;;;;;;16.40;99.90;;;;;;5077456;28;20028;-80
2021/08/21 07:21:33;;;;;;;11.90;6.68;;;16.40;99.90;;;;;;5095175;28;20388;-79
2021/08/21 07:23:59;;;;;;;14.25;7.38;;;16.60;99.90;;;;;;5095173;28;20052;-80
2021/08/21 07:26:24;;;;;;;;;;;16.80;99.90;;;;;;5095506;28;20024;-81
2021/08/21 07:28:50;;;;;;;12.38;7.32;;;16.90;99.90;;;;;;5095003;28;19908;-80
2021/08/21 07:31:16;;;;;;;;;;;16.90;99.90;;;;;;5095016;28;20039;-81
2021/08/21 07:33:42;;;;;;;14.13;8.40;;;16.50;99.90;;;;;;5094661;28;19939;-80
2021/08/21 07:36:08;;;;;;;;;;;16.50;99.90;;;;;;5095230;28;20055;-80
2021/08/21 07:38:33;;;;;;;12.38;7.72;;;16.60;99.90;;;;;;5094789;28;19927;-81
2021/08/21 07:40:59;;;;;;;;;;;16.70;99.90;;;;;;5095373;28;20024;-80
2021/08/21 07:43:25;;;;;;;11.32;7.20;;;16.70;99.90;;;;;;5075481;28;20036;-80
2021/08/21 07:45:51;;;;;;;;;;;16.60;99.90;;;;;;5077169;28;20032;-80
2021/08/21 07:48:17;;;;;;;15.05;8.27;;;16.50;99.90;;;;;;5095172;28;19995;-80
2021/08/21 07:50:44;;;;;;;13.82;7.55;;;16.70;99.90;;;;;;5094741;28;20477;-81
2021/08/21 07:53:10;;;;;;;10.52;6.75;;;16.80;99.90;;;;;;5094771;28;20031;-80
2021/08/21 07:55:36;;;;;;;;;;;16.80;99.90;;;;;;5094980;28;20028;-80
2021/08/21 07:58:03;;;;;;;14.35;7.68;;;16.90;99.90;;;;;;5094539;28;20357;-80
2021/08/21 08:00:29;;;;;;;12.82;6.80;;;17.00;99.90;;;;;;5095041;28;20024;-80
2021/08/21 08:02:54;;;;;;;;;;;16.90;99.90;;;;;;5094471;28;20446;-80
2021/08/21 08:05:20;;;;;;;11.90;7.00;;;17.20;99.90;;;;;;5094282;28;19998;-80
2021/08/21 08:07:46;;;;;;;;;;;17.10;99.90;;;;;;5094646;28;20020;-80
2021/08/21 08:10:13;;;;;;;11.63;6.60;;;17.10;99.90;;;;;;5094310;28;19904;-79
2021/08/21 08:12:38;;;;;;;11.63;7.15;;;17.10;99.90;;;;;;5094583;28;20077;-80
2021/08/21 08:15:04;;;;;;;;;;;17.30;99.90;;;;;;5076277;28;20032;-80
2021/08/21 08:17:30;;;;;;;11.77;7.28;;;17.30;99.90;;;;;;5075833;28;19930;-81
2021/08/21 08:19:55;;;;;;;;;;;17.30;99.90;;;;;;5094351;28;20073;-81
2021/08/21 08:22:21;;;;;;;13.93;6.53;;;17.40;99.90;;;;;;5094058;28;19903;-80
2021/08/21 08:24:47;;;;;;;;;;;17.40;99.90;;;;;;5076112;28;20080;-80
2021/08/21 08:27:15;;;;;;;11.07;6.80;;;17.50;99.90;;;;;;5093957;28;19904;-80
2021/08/21 08:29:41;;;;;;;11.60;6.85;;;17.40;99.90;;;;;;5075725;28;20072;-81
2021/08/21 08:32:07;;;;;;;12.85;6.80;;;17.60;99.90;;;;;;5093946;28;20035;-81
2021/08/21 08:34:33;;;;;;;10.25;6.80;;;17.70;99.90;;;;;;5094209;28;20027;-81
2021/08/21 08:36:59;;;;;;;11.23;6.63;;;17.80;99.90;;;;;;5094335;28;20028;-81
2021/08/21 08:39:25;;;;;;;11.07;6.97;;;17.90;99.90;;;;;;5094356;28;20027;-81
2021/08/21 08:41:51;;;;;;;13.02;7.32;;;17.80;99.90;;;;;;5093746;28;20441;-78
2021/08/21 08:44:22;;;;;;;14.02;7.97;;;17.80;99.90;;;;;;5093602;28;20020;-79
2021/08/21 08:46:48;;;;;;;15.07;8.13;;;17.60;99.90;;;;;;5093631;28;20460;-79
2021/08/21 08:49:15;;;;;;;12.73;7.80;;;17.50;99.90;;;;;;5093674;28;20020;-78
2021/08/21 08:51:42;;;;;;;14.85;9.02;;;17.60;99.90;;;;;;5093616;28;20422;-79
2021/08/21 08:54:08;;;;;;;13.65;8.10;;;17.50;99.90;;;;;;5093216;28;20052;-79
2021/08/21 08:56:34;;;;;;;12.32;8.15;;;17.50;99.90;;;;;;5093752;28;20067;-78
2021/08/21 08:59:00;;;;;;;14.48;7.95;;;17.30;99.90;;;;;;5075362;28;20066;-79
2021/08/21 09:01:26;;;;;;;13.57;8.40;;;17.40;99.90;;;;;;5093452;28;20028;-78
2021/08/21 09:04:12;;;;;;;;;;;17.40;99.90;;;;;;5093302;28;20048;-79
2021/08/21 09:06:39;;;;;;;10.93;5.95;;;17.40;99.90;;;;;;5075182;28;20475;-78
2021/08/21 09:09:08;;;;;;;;;;;17.50;99.90;;;;;;5093770;28;20052;-78
2021/08/21 09:11:42;;;;;;;10.60;5.35;;;17.50;99.90;;;;;;5093336;28;19904;-77
2021/08/21 09:14:19;;;;;;;11.82;6.50;;;17.30;99.90;;;;;;5093336;28;20028;-78
2021/08/21 09:16:46;;;;;;;11.25;5.07;;;17.10;99.90;;;;;;5093220;28;20047;-78
2021/08/21 09:19:21;;;;;;;8.80;5.22;;;17.20;99.90;;;;;;5093529;28;20028;-78
2021/08/21 09:21:58;;;;;;;9.93;5.82;;;17.30;99.90;;;;;;5093278;28;20035;-78
2021/08/21 09:24:24;;;;;;;11.80;6.43;;;17.40;99.90;;;;;;5074810;28;20461;-79
2021/08/21 09:26:51;;;;;;;9.98;4.60;;;17.40;99.90;;;;;;5093206;28;20091;-78
2021/08/21 09:29:27;;;;;;;10.63;6.50;;;17.60;99.90;;;;;;5093175;28;20025;-78
2021/08/21 09:32:07;;;;;;;11.18;5.70;;;17.80;99.90;;;;;;5075079;28;20020;-79
2021/08/21 09:34:34;;;;;;;11.18;4.97;;;17.80;99.90;;;;;;5093510;28;20032;-78
2021/08/21 09:37:00;;;;;;;11.93;6.25;;;17.90;99.90;;;;;;5093443;28;20028;-77
2021/08/21 09:39:39;;;;;;;8.50;4.32;;;18.00;99.90;;;;;;5093324;28;20504;-78
2021/08/21 09:42:07;;;;;;;9.23;4.70;;;18.00;99.90;;;;;;5093349;28;20037;-79
2021/08/21 09:44:43;;;;;;;10.52;4.90;;;18.20;99.90;;;;;;5093121;28;20086;-79
2021/08/21 09:47:15;;;;;;;8.25;4.43;;;18.40;99.90;;;;;;5093188;28;20070;-77
2021/08/21 09:49:43;;;;;;;8.98;4.32;;;18.50;99.90;;;;;;5074766;28;20031;-78
2021/08/21 09:52:15;;;;;;;6.75;3.35;;;18.40;99.90;;;;;;5093516;28;20428;-78
2021/08/21 09:55:01;;;;;;;8.75;4.40;;;18.50;99.90;;;;;;5074814;28;20024;-79
2021/08/21 09:57:27;;;;;;;8.95;3.90;;;18.60;99.90;;;;;;5093535;28;20500;-78
2021/08/21 09:59:56;;;;;;;9.30;3.97;;;18.80;99.90;;;;;;5074732;28;20028;-79
2021/08/21 10:02:22;;;;;;;9.40;4.50;;;19.00;99.90;;;;;;5092597;28;20044;-79
2021/08/21 10:04:48;;;;;;;9.48;4.95;;;18.80;99.90;;;;;;5092675;28;20408;-78
2021/08/21 10:07:17;;;;;;;9.20;4.63;;;18.90;99.90;;;;;;5096059;28;20024;-78
2021/08/21 10:09:44;;;;;;;8.57;4.68;;;18.90;99.90;;;;;;5078390;28;20020;-78
2021/08/21 10:12:11;;;;;;;10.07;4.22;;;19.00;99.90;;;;;;5096523;28;20070;-79
2021/08/21 10:14:40;;;;;;;8.73;4.60;;;19.30;99.90;;;;;;5096773;28;20027;-78
2021/08/21 10:17:08;;;;;;;9.73;4.45;;;19.50;99.90;;;;;;5096480;28;20031;-78
2021/08/21 10:19:36;;;;;;;8.00;4.47;;;19.50;99.90;;;;;;5078125;28;20565;-79
2021/08/21 10:22:02;;;;;;;7.88;4.53;;;19.60;99.90;;;;;;5078197;28;20429;-79
2021/08/21 10:24:28;;;;;;;9.43;4.57;;;19.70;99.90;;;;;;5096336;28;20145;-79
2021/08/21 10:27:05;;;;;;;9.82;4.50;;;19.60;99.90;;;;;;5078087;28;20111;-78
2021/08/21 10:29:32;;;;;;;8.77;4.07;;;19.90;99.90;;;;;;5096516;28;20024;-79
2021/08/21 10:31:58;;;;;;;8.77;4.07;;;20.20;99.90;;;;;;5096310;28;20376;-79
2021/08/21 10:34:24;;;;;;;6.85;3.50;;;20.40;99.90;;;;;;5096096;28;20020;-78
2021/08/21 10:36:53;;;;;;;9.15;4.20;;;20.30;99.90;;;;;;5096142;28;20028;-78
2021/08/21 10:39:37;;;;;;;10.15;4.35;;;20.60;99.90;;;;;;5096169;28;20369;-78
2021/08/21 10:42:22;;;;;;;8.38;3.72;;;20.30;99.90;;;;;;5077177;28;20024;-78
2021/08/21 10:44:50;;;;;;;8.35;4.00;;;20.20;99.90;;;;;;5094672;28;20384;-79
2021/08/21 10:47:42;;;;;;;9.50;4.18;;;20.50;99.90;;;;;;5077374;28;20032;-77
2021/08/21 10:50:13;;;;;;;7.88;3.58;;;20.80;99.90;;;;;;5072841;28;20035;-78
2021/08/21 10:52:56;;;;;;;8.15;3.97;;;21.00;99.90;;;;;;5095464;28;20510;-78
2021/08/21 10:55:42;;;;;;;11.80;4.80;;;21.00;99.90;;;;;;5095471;28;20024;-78
2021/08/21 10:58:10;;;;;;;8.52;4.07;;;20.50;99.90;;;;;;5077686;28;20503;-78
2021/08/21 11:00:38;;;;;;;8.60;4.00;;;20.50;99.90;;;;;;5095511;28;20035;-78
2021/08/21 11:03:08;;;;;;;9.15;4.13;;;20.80;99.90;;;;;;5095254;28;20044;-78
2021/08/21 11:05:57;;;;;;;7.70;4.18;;;20.80;99.90;;;;;;5095465;28;20107;-79
2021/08/21 11:08:27;;;;;;;8.02;3.67;;;21.30;99.90;;;;;;5095698;28;20528;-79
2021/08/21 11:11:07;;;;;;;8.43;3.90;;;21.00;99.90;;;;;;5095404;28;20024;-79
2021/08/21 11:14:00;;;;;;;7.97;3.47;;;21.00;99.90;;;;;;5095312;28;20141;-78
2021/08/21 11:16:47;;;;;;;9.40;3.90;;;21.10;99.90;;;;;;5095168;28;20484;-79
2021/08/21 11:19:28;;;;;;;7.05;3.40;;;21.00;99.90;;;;;;5095233;28;20476;-79
2021/08/21 11:22:09;;;;;;;7.80;3.67;;;20.90;99.90;;;;;;5095179;28;20542;-79
2021/08/21 11:24:36;;;;;;;7.28;3.63;;;21.40;99.90;;;;;;5076810;28;20064;-78
2021/08/21 11:27:24;;;;;;;7.53;3.58;;;21.60;99.90;;;;;;5095076;28;20028;-78
2021/08/21 11:30:09;;;;;;;9.82;4.00;;;22.20;99.90;;;;;;5095027;28;20026;-79
2021/08/21 11:32:50;;;;;;;8.07;3.63;;;22.60;99.90;;;;;;5076749;28;20434;-79
2021/08/21 11:35:23;;;;;;;7.60;3.53;;;23.00;99.90;;;;;;5094969;28;20523;-79
2021/08/21 11:38:03;;;;;;;7.22;3.25;;;26.40;99.90;;;;;;5095329;28;20031;-78
2021/08/21 11:40:42;;;;;;;8.10;3.40;;;27.30;99.90;;;;;;5094989;28;20488;-80
2021/08/21 11:43:11;;;;;;;7.50;3.25;;;25.30;99.90;;;;;;5094853;28;20557;-78
2021/08/21 11:45:38;;;;;;;9.68;3.17;;;24.70;99.90;;;;;;5094694;28;20472;-79
2021/08/21 11:48:04;;;;;;;6.00;3.05;;;24.10;99.90;;;;;;5094685;28;20020;-78
2021/08/21 11:50:34;;;;;;;9.25;3.55;;;23.60;99.90;;;;;;5094609;28;20027;-78
2021/08/21 11:53:03;;;;;;;7.70;3.38;;;22.50;99.90;;;;;;5094816;28;20028;-79
2021/08/21 11:55:32;;;;;;;7.10;3.40;;;22.90;99.90;;;;;;5094574;28;20447;-79
2021/08/21 11:57:57;;;;;;;6.75;2.95;;;22.90;99.90;;;;;;5094506;28;20430;-78
2021/08/21 12:00:31;;;;;;;6.38;3.17;;;22.80;99.90;;;;;;5094435;28;20024;-78
2021/08/21 12:03:01;;;;;;;6.35;3.10;;;22.30;99.90;;;;;;5094305;28;20040;-79
2021/08/21 12:05:35;;;;;;;10.43;3.15;;;22.10;99.90;;;;;;5094340;28;20016;-80
2021/08/21 12:08:22;;;;;;;8.35;3.35;;;22.00;99.90;;;;;;5075990;28;20404;-79
2021/08/21 12:10:58;;;;;;;6.75;2.90;;;21.70;99.90;;;;;;5094359;28;20103;-79
2021/08/21 12:13:32;;;;;;;8.20;3.30;;;21.20;99.90;;;;;;5094221;28;20020;-79
2021/08/21 12:16:07;;;;;;;7.88;3.22;;;21.00;99.90;;;;;;5094738;28;20487;-79
2021/08/21 12:18:36;;;;;;;8.70;3.20;;;20.90;99.90;;;;;;5094360;28;20081;-78
2021/08/21 12:21:04;;;;;;;7.70;3.17;;;21.10;99.90;;;;;;5075894;28;20114;-78
2021/08/21 12:23:31;;;;;;;8.48;3.38;;;21.00;99.90;;;;;;5093972;28;20024;-79
2021/08/21 12:26:02;;;;;;;6.85;3.30;;;21.00;99.90;;;;;;5075711;28;20118;-78
2021/08/21 12:28:37;;;;;;;9.48;3.67;;;20.80;99.90;;;;;;5093739;28;20024;-79
2021/08/21 12:31:06;;;;;;;8.02;3.78;;;20.80;99.90;;;;;;5093899;28;20027;-79
2021/08/21 12:33:38;;;;;;;8.45;4.00;;;20.50;99.90;;;;;;5094132;28;20032;-78
2021/08/21 12:36:15;;;;;;;8.18;3.70;;;20.70;99.90;;;;;;5094043;28;20019;-78
2021/08/21 12:39:20;;;;;;;7.70;3.67;;;20.70;99.90;;;;;;5075560;28;20024;-78
2021/08/21 12:41:47;;;;;;;11.52;4.57;;;20.40;99.90;;;;;;5062543;28;20043;-78
2021/08/21 12:44:14;;;;;;;8.13;4.20;;;20.20;99.90;;;;;;5093649;28;20107;-78
2021/08/21 12:46:50;;;;;;;8.43;4.40;;;20.20;99.90;;;;;;5093981;28;20028;-79
2021/08/21 12:49:16;;;;;;;;;;;20.30;99.90;;;;;;5075820;28;20047;-79
2021/08/21 12:51:43;;;;;;;8.27;4.20;;;20.20;99.90;;;;;;5093571;28;20009;-77
2021/08/21 12:54:12;;;;;;;8.60;4.60;;;20.20;99.90;;;;;;5093551;28;20087;-79
2021/08/21 12:57:14;;;;;;;10.38;4.60;;;20.10;99.90;;;;;;5093507;28;20112;-78
2021/08/21 12:59:42;;;;;;;8.80;4.75;;;20.00;99.90;;;;;;5093491;28;20361;-79
2021/08/21 13:02:09;;;;;;;10.05;4.70;;;19.90;99.90;;;;;;5093227;28;20048;-78
2021/08/21 13:04:35;;;;;;;9.13;4.20;;;20.00;99.90;;;;;;5075265;28;20530;-79
2021/08/21 13:07:04;;;;;;;9.02;4.22;;;20.20;99.90;;;;;;5075373;28;20024;-79
2021/08/21 13:09:29;;;;;;;9.27;4.25;;;20.30;99.90;;;;;;5093326;28;20023;-79